sensor_id;sensor_type;location;lat;lon;timestamp;P1;durP1;ratioP1;P2;durP2;ratioP2
58240;SDS011;45058;55.772;38.224;2022-07-29T00:17:15;7.93;;;2.28;;
58240;SDS011;45058;55.772;38.224;2022-07-29T02:42:21;10.60;;;2.30;;
58240;SDS011;45058;55.772;38.224;2022-07-29T03:10:12;6.28;;;1.92;;
58240;SDS011;45058;55.772;38.224;2022-07-29T03:12:39;11.40;;;1.90;;
58240;SDS011;45058;55.772;38.224;2022-07-29T03:15:06;18.60;;;2.60;;
58240;SDS011;45058;55.772;38.224;2022-07-29T03:17:33;5.13;;;1.48;;
58240;SDS011;45058;55.772;38.224;2022-07-29T03:22:56;3.63;;;1.77;;
58240;SDS011;45058;55.772;38.224;2022-07-29T03:25:22;3.78;;;1.95;;
58240;SDS011;45058;55.772;38.224;2022-07-29T03:27:48;3.25;;;1.67;;
58240;SDS011;45058;55.772;38.224;2022-07-29T03:30:15;12.05;;;1.90;;
58240;SDS011;45058;55.772;38.224;2022-07-29T03:32:44;8.70;;;1.70;;
58240;SDS011;45058;55.772;38.224;2022-07-29T03:35:10;8.02;;;2.13;;
58240;SDS011;45058;55.772;38.224;2022-07-29T03:37:36;7.13;;;2.40;;
58240;SDS011;45058;55.772;38.224;2022-07-29T03:40:03;7.57;;;2.40;;
58240;SDS011;45058;55.772;38.224;2022-07-29T03:42:31;6.80;;;3.22;;
58240;SDS011;45058;55.772;38.224;2022-07-29T03:44:59;11.80;;;3.05;;
58240;SDS011;45058;55.772;38.224;2022-07-29T03:47:28;11.43;;;3.33;;
58240;SDS011;45058;55.772;38.224;2022-07-29T03:49:57;5.13;;;2.88;;
58240;SDS011;45058;55.772;38.224;2022-07-29T03:52:26;12.32;;;3.78;;
58240;SDS011;45058;55.772;38.224;2022-07-29T03:54:54;12.05;;;3.30;;
58240;SDS011;45058;55.772;38.224;2022-07-29T03:57:20;7.95;;;3.47;;
58240;SDS011;45058;55.772;38.224;2022-07-29T03:59:50;6.43;;;3.50;;
58240;SDS011;45058;55.772;38.224;2022-07-29T04:02:16;16.95;;;6.85;;
58240;SDS011;45058;55.772;38.224;2022-07-29T04:04:44;11.60;;;6.30;;
58240;SDS011;45058;55.772;38.224;2022-07-29T04:07:13;10.70;;;5.15;;
58240;SDS011;45058;55.772;38.224;2022-07-29T04:09:39;9.07;;;4.75;;
58240;SDS011;45058;55.772;38.224;2022-07-29T04:12:06;10.63;;;6.10;;
58240;SDS011;45058;55.772;38.224;2022-07-29T04:14:32;12.45;;;7.18;;
58240;SDS011;45058;55.772;38.224;2022-07-29T04:16:59;9.15;;;5.78;;
58240;SDS011;45058;55.772;38.224;2022-07-29T04:19:26;14.70;;;6.95;;
58240;SDS011;45058;55.772;38.224;2022-07-29T04:21:52;12.52;;;5.93;;
58240;SDS011;45058;55.772;38.224;2022-07-29T04:24:18;9.48;;;5.63;;
58240;SDS011;45058;55.772;38.224;2022-07-29T04:26:47;10.65;;;5.28;;
58240;SDS011;45058;55.772;38.224;2022-07-29T04:29:13;12.57;;;5.78;;
58240;SDS011;45058;55.772;38.224;2022-07-29T04:31:40;12.75;;;5.35;;
58240;SDS011;45058;55.772;38.224;2022-07-29T04:34:06;12.52;;;6.00;;
58240;SDS011;45058;55.772;38.224;2022-07-29T04:36:32;16.10;;;7.78;;
58240;SDS011;45058;55.772;38.224;2022-07-29T04:38:58;6.55;;;4.07;;
58240;SDS011;45058;55.772;38.224;2022-07-29T04:41:26;11.27;;;3.45;;
58240;SDS011;45058;55.772;38.224;2022-07-29T04:43:53;5.72;;;4.00;;
58240;SDS011;45058;55.772;38.224;2022-07-29T04:46:19;8.23;;;4.28;;
58240;SDS011;45058;55.772;38.224;2022-07-29T04:48:45;9.45;;;4.07;;
58240;SDS011;45058;55.772;38.224;2022-07-29T04:51:13;8.25;;;2.95;;
58240;SDS011;45058;55.772;38.224;2022-07-29T04:53:39;7.78;;;2.13;;
58240;SDS011;45058;55.772;38.224;2022-07-29T04:56:05;5.55;;;1.90;;
58240;SDS011;45058;55.772;38.224;2022-07-29T04:58:33;3.83;;;2.03;;
58240;SDS011;45058;55.772;38.224;2022-07-29T05:01:00;9.75;;;2.20;;
58240;SDS011;45058;55.772;38.224;2022-07-29T05:03:26;9.88;;;4.13;;
58240;SDS011;45058;55.772;38.224;2022-07-29T05:05:52;4.95;;;3.28;;
58240;SDS011;45058;55.772;38.224;2022-07-29T05:08:18;6.70;;;2.70;;
58240;SDS011;45058;55.772;38.224;2022-07-29T05:10:44;11.32;;;3.33;;
58240;SDS011;45058;55.772;38.224;2022-07-29T05:13:10;7.68;;;2.10;;
58240;SDS011;45058;55.772;38.224;2022-07-29T05:15:36;5.10;;;1.55;;
58240;SDS011;45058;55.772;38.224;2022-07-29T05:18:03;6.60;;;1.40;;
58240;SDS011;45058;55.772;38.224;2022-07-29T05:20:29;7.57;;;1.52;;
58240;SDS011;45058;55.772;38.224;2022-07-29T05:22:58;6.38;;;1.33;;
58240;SDS011;45058;55.772;38.224;2022-07-29T05:25:25;7.70;;;1.75;;
58240;SDS011;45058;55.772;38.224;2022-07-29T05:27:52;5.35;;;1.10;;
58240;SDS011;45058;55.772;38.224;2022-07-29T05:30:19;6.25;;;1.00;;
58240;SDS011;45058;55.772;38.224;2022-07-29T05:32:45;4.88;;;0.90;;
58240;SDS011;45058;55.772;38.224;2022-07-29T05:35:11;8.15;;;1.60;;
58240;SDS011;45058;55.772;38.224;2022-07-29T05:37:37;4.35;;;1.25;;
58240;SDS011;45058;55.772;38.224;2022-07-29T05:40:05;2.78;;;1.10;;
58240;SDS011;45058;55.772;38.224;2022-07-29T05:42:32;4.70;;;1.00;;
58240;SDS011;45058;55.772;38.224;2022-07-29T05:44:59;7.40;;;1.30;;
58240;SDS011;45058;55.772;38.224;2022-07-29T05:47:25;5.72;;;1.30;;
58240;SDS011;45058;55.772;38.224;2022-07-29T05:49:51;10.98;;;1.50;;
58240;SDS011;45058;55.772;38.224;2022-07-29T05:52:17;6.30;;;1.40;;
58240;SDS011;45058;55.772;38.224;2022-07-29T05:54:43;7.05;;;1.08;;
58240;SDS011;45058;55.772;38.224;2022-07-29T05:57:19;6.13;;;1.27;;
58240;SDS011;45058;55.772;38.224;2022-07-29T05:59:47;8.10;;;1.30;;
58240;SDS011;45058;55.772;38.224;2022-07-29T06:02:13;7.30;;;1.15;;
58240;SDS011;45058;55.772;38.224;2022-07-29T06:04:39;6.95;;;1.45;;
58240;SDS011;45058;55.772;38.224;2022-07-29T06:07:05;4.78;;;1.10;;
58240;SDS011;45058;55.772;38.224;2022-07-29T06:09:31;6.78;;;1.40;;
58240;SDS011;45058;55.772;38.224;2022-07-29T06:11:58;9.20;;;1.20;;
58240;SDS011;45058;55.772;38.224;2022-07-29T06:14:24;4.40;;;1.25;;
58240;SDS011;45058;55.772;38.224;2022-07-29T06:16:50;6.90;;;1.42;;
58240;SDS011;45058;55.772;38.224;2022-07-29T06:19:16;3.97;;;1.13;;
58240;SDS011;45058;55.772;38.224;2022-07-29T06:21:43;7.18;;;0.80;;
58240;SDS011;45058;55.772;38.224;2022-07-29T06:24:12;6.70;;;1.23;;
58240;SDS011;45058;55.772;38.224;2022-07-29T06:26:39;5.60;;;1.00;;
58240;SDS011;45058;55.772;38.224;2022-07-29T06:29:06;4.43;;;0.90;;
58240;SDS011;45058;55.772;38.224;2022-07-29T06:31:32;2.67;;;1.00;;
58240;SDS011;45058;55.772;38.224;2022-07-29T06:33:58;5.32;;;1.15;;
58240;SDS011;45058;55.772;38.224;2022-07-29T06:36:24;7.13;;;1.20;;
58240;SDS011;45058;55.772;38.224;2022-07-29T06:38:50;5.43;;;1.08;;
58240;SDS011;45058;55.772;38.224;2022-07-29T06:41:16;6.70;;;1.20;;
58240;SDS011;45058;55.772;38.224;2022-07-29T06:43:45;8.63;;;1.33;;
58240;SDS011;45058;55.772;38.224;2022-07-29T06:46:12;6.05;;;1.00;;
58240;SDS011;45058;55.772;38.224;2022-07-29T06:48:40;5.38;;;1.10;;
58240;SDS011;45058;55.772;38.224;2022-07-29T06:51:08;4.25;;;1.00;;
58240;SDS011;45058;55.772;38.224;2022-07-29T06:53:34;7.15;;;1.02;;
58240;SDS011;45058;55.772;38.224;2022-07-29T07:34:02;7.38;;;1.42;;
58240;SDS011;45058;55.772;38.224;2022-07-29T07:36:28;9.05;;;1.35;;
58240;SDS011;45058;55.772;38.224;2022-07-29T07:38:55;7.55;;;1.20;;
58240;SDS011;45058;55.772;38.224;2022-07-29T07:41:23;6.53;;;1.05;;
58240;SDS011;45058;55.772;38.224;2022-07-29T07:43:49;3.35;;;1.25;;
58240;SDS011;45058;55.772;38.224;2022-07-29T07:46:16;7.32;;;1.35;;
58240;SDS011;45058;55.772;38.224;2022-07-29T07:48:42;6.55;;;1.00;;
58240;SDS011;45058;55.772;38.224;2022-07-29T07:51:08;3.60;;;1.20;;
58240;SDS011;45058;55.772;38.224;2022-07-29T07:53:35;8.68;;;1.20;;
58240;SDS011;45058;55.772;38.224;2022-07-29T07:56:01;4.00;;;1.08;;
58240;SDS011;45058;55.772;38.224;2022-07-29T07:58:27;6.40;;;1.88;;
58240;SDS011;45058;55.772;38.224;2022-07-29T08:00:54;16.08;;;4.63;;
58240;SDS011;45058;55.772;38.224;2022-07-29T08:03:20;5.82;;;2.47;;
58240;SDS011;45058;55.772;38.224;2022-07-29T08:05:46;3.53;;;1.35;;
58240;SDS011;45058;55.772;38.224;2022-07-29T08:08:13;9.50;;;1.23;;
58240;SDS011;45058;55.772;38.224;2022-07-29T08:10:40;5.13;;;0.80;;
58240;SDS011;45058;55.772;38.224;2022-07-29T08:13:18;3.03;;;0.82;;
58240;SDS011;45058;55.772;38.224;2022-07-29T08:15:46;4.82;;;1.00;;
58240;SDS011;45058;55.772;38.224;2022-07-29T08:18:13;6.03;;;1.38;;
58240;SDS011;45058;55.772;38.224;2022-07-29T08:20:39;4.07;;;1.30;;
58240;SDS011;45058;55.772;38.224;2022-07-29T08:23:06;5.85;;;1.35;;
58240;SDS011;45058;55.772;38.224;2022-07-29T08:25:36;4.80;;;1.00;;
58240;SDS011;45058;55.772;38.224;2022-07-29T08:28:03;2.45;;;1.25;;
58240;SDS011;45058;55.772;38.224;2022-07-29T08:30:30;5.32;;;0.85;;
58240;SDS011;45058;55.772;38.224;2022-07-29T08:32:57;7.50;;;1.52;;
58240;SDS011;45058;55.772;38.224;2022-07-29T08:35:24;29.17;;;3.53;;
58240;SDS011;45058;55.772;38.224;2022-07-29T08:37:51;6.95;;;1.38;;
58240;SDS011;45058;55.772;38.224;2022-07-29T08:40:18;1.58;;;0.70;;
58240;SDS011;45058;55.772;38.224;2022-07-29T08:42:46;16.48;;;1.90;;
58240;SDS011;45058;55.772;38.224;2022-07-29T08:45:12;9.75;;;0.80;;
58240;SDS011;45058;55.772;38.224;2022-07-29T08:47:39;7.70;;;1.10;;
58240;SDS011;45058;55.772;38.224;2022-07-29T08:50:06;5.90;;;1.00;;
58240;SDS011;45058;55.772;38.224;2022-07-29T08:52:35;24.48;;;1.88;;
58240;SDS011;45058;55.772;38.224;2022-07-29T08:55:04;5.55;;;2.38;;
58240;SDS011;45058;55.772;38.224;2022-07-29T08:57:31;17.55;;;11.90;;
58240;SDS011;45058;55.772;38.224;2022-07-29T08:59:59;5.65;;;1.35;;
58240;SDS011;45058;55.772;38.224;2022-07-29T09:02:27;1.67;;;0.57;;
58240;SDS011;45058;55.772;38.224;2022-07-29T09:04:55;3.90;;;0.70;;
58240;SDS011;45058;55.772;38.224;2022-07-29T09:07:23;8.35;;;1.05;;
58240;SDS011;45058;55.772;38.224;2022-07-29T09:09:49;3.28;;;1.00;;
58240;SDS011;45058;55.772;38.224;2022-07-29T09:12:15;2.08;;;0.80;;
58240;SDS011;45058;55.772;38.224;2022-07-29T09:14:42;3.70;;;0.70;;
58240;SDS011;45058;55.772;38.224;2022-07-29T09:17:08;28.48;;;9.93;;
58240;SDS011;45058;55.772;38.224;2022-07-29T09:19:35;4.32;;;0.82;;
58240;SDS011;45058;55.772;38.224;2022-07-29T09:22:03;3.28;;;1.40;;
58240;SDS011;45058;55.772;38.224;2022-07-29T09:26:59;7.22;;;1.17;;
58240;SDS011;45058;55.772;38.224;2022-07-29T09:29:32;1.25;;;0.70;;
58240;SDS011;45058;55.772;38.224;2022-07-29T09:31:59;4.75;;;0.98;;
58240;SDS011;45058;55.772;38.224;2022-07-29T09:34:26;3.72;;;1.02;;
58240;SDS011;45058;55.772;38.224;2022-07-29T09:36:54;6.00;;;1.48;;
58240;SDS011;45058;55.772;38.224;2022-07-29T09:42:02;2.80;;;0.82;;
58240;SDS011;45058;55.772;38.224;2022-07-29T09:44:41;5.47;;;0.85;;
58240;SDS011;45058;55.772;38.224;2022-07-29T09:47:12;4.80;;;0.90;;
58240;SDS011;45058;55.772;38.224;2022-07-29T09:49:57;4.22;;;0.88;;
58240;SDS011;45058;55.772;38.224;2022-07-29T09:52:27;4.97;;;0.68;;
58240;SDS011;45058;55.772;38.224;2022-07-29T09:55:04;4.50;;;0.90;;
58240;SDS011;45058;55.772;38.224;2022-07-29T09:57:34;3.17;;;0.98;;
58240;SDS011;45058;55.772;38.224;2022-07-29T10:02:37;3.22;;;0.82;;
58240;SDS011;45058;55.772;38.224;2022-07-29T10:05:09;1.92;;;0.65;;
58240;SDS011;45058;55.772;38.224;2022-07-29T10:10:19;3.85;;;0.82;;
58240;SDS011;45058;55.772;38.224;2022-07-29T10:12:50;2.75;;;0.60;;
58240;SDS011;45058;55.772;38.224;2022-07-29T10:15:18;2.22;;;0.70;;
58240;SDS011;45058;55.772;38.224;2022-07-29T10:17:44;4.50;;;0.88;;
58240;SDS011;45058;55.772;38.224;2022-07-29T10:20:11;2.35;;;0.90;;
58240;SDS011;45058;55.772;38.224;2022-07-29T10:22:37;4.50;;;0.68;;
58240;SDS011;45058;55.772;38.224;2022-07-29T10:25:04;4.57;;;0.80;;
58240;SDS011;45058;55.772;38.224;2022-07-29T10:27:30;4.47;;;0.80;;
58240;SDS011;45058;55.772;38.224;2022-07-29T10:29:56;5.10;;;1.20;;
58240;SDS011;45058;55.772;38.224;2022-07-29T10:43:32;3.17;;;0.60;;
58240;SDS011;45058;55.772;38.224;2022-07-29T10:46:01;5.07;;;0.90;;
58240;SDS011;45058;55.772;38.224;2022-07-29T10:48:28;2.28;;;0.80;;
58240;SDS011;45058;55.772;38.224;2022-07-29T10:53:45;5.13;;;0.70;;
58240;SDS011;45058;55.772;38.224;2022-07-29T10:56:27;5.03;;;1.05;;
58240;SDS011;45058;55.772;38.224;2022-07-29T11:01:46;4.50;;;1.48;;
58240;SDS011;45058;55.772;38.224;2022-07-29T11:04:12;8.82;;;1.05;;
58240;SDS011;45058;55.772;38.224;2022-07-29T11:09:27;2.60;;;0.90;;
58240;SDS011;45058;55.772;38.224;2022-07-29T11:11:58;2.33;;;0.70;;
58240;SDS011;45058;55.772;38.224;2022-07-29T11:20:33;5.38;;;1.00;;
58240;SDS011;45058;55.772;38.224;2022-07-29T11:23:16;3.25;;;0.88;;
58240;SDS011;45058;55.772;38.224;2022-07-29T11:31:32;1.42;;;0.60;;
58240;SDS011;45058;55.772;38.224;2022-07-29T11:34:15;1.48;;;0.47;;
58240;SDS011;45058;55.772;38.224;2022-07-29T11:39:35;1.95;;;0.45;;
58240;SDS011;45058;55.772;38.224;2022-07-29T11:45:00;1.08;;;0.70;;
58240;SDS011;45058;55.772;38.224;2022-07-29T11:47:28;2.38;;;0.73;;
58240;SDS011;45058;55.772;38.224;2022-07-29T11:49:55;2.33;;;0.52;;
58240;SDS011;45058;55.772;38.224;2022-07-29T11:52:23;3.47;;;0.63;;
58240;SDS011;45058;55.772;38.224;2022-07-29T11:54:50;4.88;;;0.60;;
58240;SDS011;45058;55.772;38.224;2022-07-29T11:57:17;4.80;;;0.60;;
58240;SDS011;45058;55.772;38.224;2022-07-29T11:59:45;3.83;;;0.75;;
58240;SDS011;45058;55.772;38.224;2022-07-29T12:02:12;3.53;;;0.63;;
58240;SDS011;45058;55.772;38.224;2022-07-29T12:04:55;1.75;;;0.80;;
58240;SDS011;45058;55.772;38.224;2022-07-29T12:07:29;2.47;;;0.70;;
58240;SDS011;45058;55.772;38.224;2022-07-29T12:09:56;6.85;;;0.80;;
58240;SDS011;45058;55.772;38.224;2022-07-29T12:12:22;1.15;;;0.60;;
58240;SDS011;45058;55.772;38.224;2022-07-29T12:14:48;1.63;;;0.70;;
58240;SDS011;45058;55.772;38.224;2022-07-29T12:17:27;3.13;;;0.90;;
58240;SDS011;45058;55.772;38.224;2022-07-29T12:19:55;2.35;;;0.45;;
58240;SDS011;45058;55.772;38.224;2022-07-29T12:22:34;1.27;;;0.70;;
58240;SDS011;45058;55.772;38.224;2022-07-29T12:25:07;1.48;;;0.57;;
58240;SDS011;45058;55.772;38.224;2022-07-29T12:27:37;3.97;;;1.00;;
58240;SDS011;45058;55.772;38.224;2022-07-29T12:30:08;4.07;;;0.90;;
58240;SDS011;45058;55.772;38.224;2022-07-29T12:32:39;4.75;;;1.15;;
58240;SDS011;45058;55.772;38.224;2022-07-29T12:35:11;7.68;;;0.75;;
58240;SDS011;45058;55.772;38.224;2022-07-29T12:37:43;1.23;;;0.50;;
58240;SDS011;45058;55.772;38.224;2022-07-29T12:40:11;3.25;;;0.93;;
58240;SDS011;45058;55.772;38.224;2022-07-29T12:42:38;5.38;;;1.05;;
58240;SDS011;45058;55.772;38.224;2022-07-29T12:45:05;2.50;;;0.70;;
58240;SDS011;45058;55.772;38.224;2022-07-29T12:47:32;4.45;;;0.70;;
58240;SDS011;45058;55.772;38.224;2022-07-29T12:52:53;5.32;;;0.70;;
58240;SDS011;45058;55.772;38.224;2022-07-29T12:55:42;3.28;;;0.60;;
58240;SDS011;45058;55.772;38.224;2022-07-29T12:58:10;13.57;;;1.40;;
58240;SDS011;45058;55.772;38.224;2022-07-29T13:00:36;5.45;;;1.58;;
58240;SDS011;45058;55.772;38.224;2022-07-29T13:03:02;29.15;;;1.92;;
58240;SDS011;45058;55.772;38.224;2022-07-29T13:05:42;6.07;;;1.02;;
58240;SDS011;45058;55.772;38.224;2022-07-29T13:08:16;21.13;;;1.35;;
58240;SDS011;45058;55.772;38.224;2022-07-29T13:10:47;1.33;;;0.57;;
58240;SDS011;45058;55.772;38.224;2022-07-29T13:13:13;4.63;;;0.68;;
58240;SDS011;45058;55.772;38.224;2022-07-29T13:15:41;3.08;;;0.70;;
58240;SDS011;45058;55.772;38.224;2022-07-29T13:21:09;4.57;;;1.27;;
58240;SDS011;45058;55.772;38.224;2022-07-29T13:23:39;2.35;;;1.05;;
58240;SDS011;45058;55.772;38.224;2022-07-29T13:26:06;2.10;;;0.93;;
58240;SDS011;45058;55.772;38.224;2022-07-29T13:28:33;3.75;;;0.98;;
58240;SDS011;45058;55.772;38.224;2022-07-29T13:30:59;5.20;;;0.88;;
58240;SDS011;45058;55.772;38.224;2022-07-29T13:33:26;2.45;;;0.90;;
58240;SDS011;45058;55.772;38.224;2022-07-29T13:35:52;3.67;;;0.80;;
58240;SDS011;45058;55.772;38.224;2022-07-29T13:38:18;2.30;;;1.15;;
58240;SDS011;45058;55.772;38.224;2022-07-29T13:40:44;1.58;;;0.68;;
58240;SDS011;45058;55.772;38.224;2022-07-29T13:43:10;3.80;;;0.70;;
58240;SDS011;45058;55.772;38.224;2022-07-29T13:45:37;4.25;;;0.70;;
58240;SDS011;45058;55.772;38.224;2022-07-29T13:48:03;10.57;;;1.17;;
58240;SDS011;45058;55.772;38.224;2022-07-29T13:50:30;4.32;;;0.90;;
58240;SDS011;45058;55.772;38.224;2022-07-29T13:52:56;2.35;;;1.20;;
58240;SDS011;45058;55.772;38.224;2022-07-29T13:55:23;2.75;;;1.40;;
58240;SDS011;45058;55.772;38.224;2022-07-29T13:57:49;4.32;;;1.00;;
58240;SDS011;45058;55.772;38.224;2022-07-29T14:00:15;5.00;;;1.10;;
58240;SDS011;45058;55.772;38.224;2022-07-29T14:02:42;1.27;;;0.70;;
58240;SDS011;45058;55.772;38.224;2022-07-29T14:05:08;2.35;;;0.90;;
58240;SDS011;45058;55.772;38.224;2022-07-29T14:07:36;6.30;;;1.00;;
58240;SDS011;45058;55.772;38.224;2022-07-29T14:10:04;1.63;;;1.08;;
58240;SDS011;45058;55.772;38.224;2022-07-29T14:12:31;1.67;;;0.80;;
58240;SDS011;45058;55.772;38.224;2022-07-29T14:14:57;4.45;;;1.15;;
58240;SDS011;45058;55.772;38.224;2022-07-29T14:17:23;6.22;;;1.40;;
58240;SDS011;45058;55.772;38.224;2022-07-29T14:19:49;2.38;;;1.08;;
58240;SDS011;45058;55.772;38.224;2022-07-29T14:22:15;1.77;;;0.90;;
58240;SDS011;45058;55.772;38.224;2022-07-29T14:24:44;3.63;;;0.80;;
58240;SDS011;45058;55.772;38.224;2022-07-29T14:27:10;2.55;;;1.00;;
58240;SDS011;45058;55.772;38.224;2022-07-29T14:29:36;6.85;;;1.00;;
58240;SDS011;45058;55.772;38.224;2022-07-29T14:32:03;5.53;;;1.20;;
58240;SDS011;45058;55.772;38.224;2022-07-29T14:34:40;4.55;;;0.90;;
58240;SDS011;45058;55.772;38.224;2022-07-29T14:37:06;4.53;;;1.00;;
58240;SDS011;45058;55.772;38.224;2022-07-29T14:39:32;5.07;;;0.95;;
58240;SDS011;45058;55.772;38.224;2022-07-29T14:42:00;1.33;;;0.80;;
58240;SDS011;45058;55.772;38.224;2022-07-29T14:44:26;2.42;;;0.85;;
58240;SDS011;45058;55.772;38.224;2022-07-29T14:46:59;7.93;;;0.98;;
58240;SDS011;45058;55.772;38.224;2022-07-29T14:49:26;3.47;;;1.20;;
58240;SDS011;45058;55.772;38.224;2022-07-29T14:51:52;5.50;;;1.27;;
58240;SDS011;45058;55.772;38.224;2022-07-29T14:54:18;3.63;;;1.33;;
58240;SDS011;45058;55.772;38.224;2022-07-29T14:56:44;6.47;;;1.30;;
58240;SDS011;45058;55.772;38.224;2022-07-29T15:04:02;3.97;;;1.60;;
58240;SDS011;45058;55.772;38.224;2022-07-29T15:11:20;23.67;;;2.33;;
58240;SDS011;45058;55.772;38.224;2022-07-29T15:13:46;23.07;;;2.20;;
58240;SDS011;45058;55.772;38.224;2022-07-29T15:16:12;18.13;;;2.17;;
58240;SDS011;45058;55.772;38.224;2022-07-29T15:18:38;4.38;;;1.20;;
58240;SDS011;45058;55.772;38.224;2022-07-29T15:21:04;3.22;;;1.20;;
58240;SDS011;45058;55.772;38.224;2022-07-29T15:23:32;3.90;;;1.13;;
58240;SDS011;45058;55.772;38.224;2022-07-29T15:26:00;8.95;;;3.10;;
58240;SDS011;45058;55.772;38.224;2022-07-29T15:28:26;4.30;;;1.95;;
58240;SDS011;45058;55.772;38.224;2022-07-29T15:30:52;5.03;;;1.42;;
58240;SDS011;45058;55.772;38.224;2022-07-29T15:33:20;1.77;;;1.10;;
58240;SDS011;45058;55.772;38.224;2022-07-29T15:35:48;2.97;;;1.20;;
58240;SDS011;45058;55.772;38.224;2022-07-29T15:38:15;3.15;;;1.40;;
58240;SDS011;45058;55.772;38.224;2022-07-29T15:40:41;2.95;;;1.20;;
58240;SDS011;45058;55.772;38.224;2022-07-29T15:43:08;3.65;;;1.60;;
58240;SDS011;45058;55.772;38.224;2022-07-29T15:45:35;3.63;;;1.25;;
58240;SDS011;45058;55.772;38.224;2022-07-29T15:48:04;4.10;;;1.75;;
58240;SDS011;45058;55.772;38.224;2022-07-29T15:50:31;4.13;;;1.42;;
58240;SDS011;45058;55.772;38.224;2022-07-29T15:52:57;11.55;;;2.08;;
58240;SDS011;45058;55.772;38.224;2022-07-29T15:55:23;9.00;;;1.60;;
58240;SDS011;45058;55.772;38.224;2022-07-29T15:57:49;7.50;;;1.35;;
58240;SDS011;45058;55.772;38.224;2022-07-29T16:00:15;2.90;;;1.42;;
58240;SDS011;45058;55.772;38.224;2022-07-29T16:02:42;7.72;;;1.30;;
58240;SDS011;45058;55.772;38.224;2022-07-29T16:05:09;6.18;;;1.60;;
58240;SDS011;45058;55.772;38.224;2022-07-29T16:07:35;4.07;;;1.77;;
58240;SDS011;45058;55.772;38.224;2022-07-29T16:10:02;5.60;;;1.52;;
58240;SDS011;45058;55.772;38.224;2022-07-29T16:12:28;10.02;;;3.95;;
58240;SDS011;45058;55.772;38.224;2022-07-29T16:14:54;11.13;;;5.00;;
58240;SDS011;45058;55.772;38.224;2022-07-29T16:17:20;17.15;;;4.53;;
58240;SDS011;45058;55.772;38.224;2022-07-29T16:19:46;29.10;;;3.85;;
58240;SDS011;45058;55.772;38.224;2022-07-29T16:22:12;11.88;;;4.32;;
58240;SDS011;45058;55.772;38.224;2022-07-29T16:24:38;10.52;;;4.47;;
58240;SDS011;45058;55.772;38.224;2022-07-29T16:27:05;6.22;;;2.53;;
58240;SDS011;45058;55.772;38.224;2022-07-29T16:29:31;15.48;;;6.80;;
58240;SDS011;45058;55.772;38.224;2022-07-29T16:31:57;15.27;;;8.65;;
58240;SDS011;45058;55.772;38.224;2022-07-29T16:34:23;17.30;;;7.10;;
58240;SDS011;45058;55.772;38.224;2022-07-29T16:36:49;9.75;;;4.97;;
58240;SDS011;45058;55.772;38.224;2022-07-29T16:39:15;17.40;;;5.95;;
58240;SDS011;45058;55.772;38.224;2022-07-29T16:41:41;15.65;;;9.63;;
58240;SDS011;45058;55.772;38.224;2022-07-29T16:44:07;17.55;;;4.97;;
58240;SDS011;45058;55.772;38.224;2022-07-29T16:46:33;19.10;;;3.75;;
58240;SDS011;45058;55.772;38.224;2022-07-29T16:49:02;16.15;;;3.72;;
58240;SDS011;45058;55.772;38.224;2022-07-29T16:51:28;32.92;;;3.42;;
58240;SDS011;45058;55.772;38.224;2022-07-29T16:53:54;18.08;;;2.50;;
58240;SDS011;45058;55.772;38.224;2022-07-29T16:56:20;20.77;;;2.58;;
58240;SDS011;45058;55.772;38.224;2022-07-29T16:58:46;5.28;;;1.88;;
58240;SDS011;45058;55.772;38.224;2022-07-29T17:01:12;11.00;;;1.52;;
58240;SDS011;45058;55.772;38.224;2022-07-29T17:03:38;9.98;;;1.70;;
58240;SDS011;45058;55.772;38.224;2022-07-29T17:06:24;9.18;;;1.20;;
58240;SDS011;45058;55.772;38.224;2022-07-29T17:08:50;5.72;;;1.40;;
58240;SDS011;45058;55.772;38.224;2022-07-29T17:11:16;7.20;;;1.10;;
58240;SDS011;45058;55.772;38.224;2022-07-29T17:13:42;6.45;;;1.60;;
58240;SDS011;45058;55.772;38.224;2022-07-29T17:16:08;5.72;;;1.88;;
58240;SDS011;45058;55.772;38.224;2022-07-29T17:18:34;7.78;;;2.50;;
58240;SDS011;45058;55.772;38.224;2022-07-29T17:21:00;9.23;;;5.60;;
58240;SDS011;45058;55.772;38.224;2022-07-29T17:23:26;16.25;;;7.22;;
58240;SDS011;45058;55.772;38.224;2022-07-29T17:25:52;9.15;;;3.55;;
58240;SDS011;45058;55.772;38.224;2022-07-29T17:28:18;9.10;;;3.10;;
58240;SDS011;45058;55.772;38.224;2022-07-29T17:30:44;7.00;;;2.50;;
58240;SDS011;45058;55.772;38.224;2022-07-29T17:33:10;6.07;;;2.00;;
58240;SDS011;45058;55.772;38.224;2022-07-29T17:35:36;3.85;;;1.85;;
58240;SDS011;45058;55.772;38.224;2022-07-29T17:38:20;12.68;;;1.98;;
58240;SDS011;45058;55.772;38.224;2022-07-29T17:40:46;8.00;;;3.00;;
58240;SDS011;45058;55.772;38.224;2022-07-29T17:43:13;8.82;;;3.70;;
58240;SDS011;45058;55.772;38.224;2022-07-29T17:45:40;11.02;;;4.95;;
58240;SDS011;45058;55.772;38.224;2022-07-29T17:48:06;12.45;;;6.88;;
58240;SDS011;45058;55.772;38.224;2022-07-29T17:50:32;17.83;;;8.52;;
58240;SDS011;45058;55.772;38.224;2022-07-29T17:52:58;33.42;;;17.90;;
58240;SDS011;45058;55.772;38.224;2022-07-29T17:55:24;27.48;;;14.52;;
58240;SDS011;45058;55.772;38.224;2022-07-29T17:57:50;21.15;;;12.98;;
58240;SDS011;45058;55.772;38.224;2022-07-29T18:00:16;24.60;;;13.98;;
58240;SDS011;45058;55.772;38.224;2022-07-29T18:02:42;23.83;;;12.63;;
58240;SDS011;45058;55.772;38.224;2022-07-29T18:05:08;22.77;;;14.43;;
58240;SDS011;45058;55.772;38.224;2022-07-29T18:07:34;18.83;;;9.13;;
58240;SDS011;45058;55.772;38.224;2022-07-29T18:10:00;32.67;;;13.95;;
58240;SDS011;45058;55.772;38.224;2022-07-29T18:12:27;35.10;;;12.23;;
58240;SDS011;45058;55.772;38.224;2022-07-29T18:14:53;25.75;;;12.57;;
58240;SDS011;45058;55.772;38.224;2022-07-29T18:17:19;39.50;;;18.92;;
58240;SDS011;45058;55.772;38.224;2022-07-29T18:19:45;26.83;;;15.20;;
58240;SDS011;45058;55.772;38.224;2022-07-29T18:22:12;39.38;;;18.73;;
58240;SDS011;45058;55.772;38.224;2022-07-29T18:24:39;58.30;;;25.02;;
58240;SDS011;45058;55.772;38.224;2022-07-29T18:27:06;52.47;;;22.85;;
58240;SDS011;45058;55.772;38.224;2022-07-29T18:29:32;29.80;;;14.75;;
58240;SDS011;45058;55.772;38.224;2022-07-29T18:31:59;31.55;;;17.33;;
58240;SDS011;45058;55.772;38.224;2022-07-29T18:34:26;39.75;;;16.40;;
58240;SDS011;45058;55.772;38.224;2022-07-29T18:36:53;28.88;;;16.38;;
58240;SDS011;45058;55.772;38.224;2022-07-29T18:39:19;30.48;;;17.10;;
58240;SDS011;45058;55.772;38.224;2022-07-29T18:41:45;22.67;;;12.73;;
58240;SDS011;45058;55.772;38.224;2022-07-29T18:44:11;25.40;;;11.93;;
58240;SDS011;45058;55.772;38.224;2022-07-29T18:46:41;20.55;;;11.70;;
58240;SDS011;45058;55.772;38.224;2022-07-29T18:49:08;23.35;;;11.05;;
58240;SDS011;45058;55.772;38.224;2022-07-29T18:51:34;17.05;;;6.57;;
58240;SDS011;45058;55.772;38.224;2022-07-29T18:54:00;19.85;;;9.95;;
58240;SDS011;45058;55.772;38.224;2022-07-29T18:56:26;17.30;;;6.25;;
58240;SDS011;45058;55.772;38.224;2022-07-29T18:58:52;21.98;;;10.00;;
58240;SDS011;45058;55.772;38.224;2022-07-29T19:01:19;20.65;;;8.25;;
58240;SDS011;45058;55.772;38.224;2022-07-29T19:03:45;59.03;;;8.55;;
58240;SDS011;45058;55.772;38.224;2022-07-29T19:06:11;26.25;;;6.55;;
58240;SDS011;45058;55.772;38.224;2022-07-29T19:08:37;12.13;;;6.25;;
58240;SDS011;45058;55.772;38.224;2022-07-29T19:11:04;12.07;;;6.20;;
58240;SDS011;45058;55.772;38.224;2022-07-29T19:13:30;21.63;;;6.28;;
58240;SDS011;45058;55.772;38.224;2022-07-29T19:15:56;17.55;;;7.32;;
58240;SDS011;45058;55.772;38.224;2022-07-29T19:18:22;18.60;;;6.72;;
58240;SDS011;45058;55.772;38.224;2022-07-29T19:20:48;13.25;;;5.75;;